Time;durP1;ratioP1;P1;durP2;ratioP2;P2;SDS_P1;SDS_P2;PMS_P1;PMS_P2;Temp;Humidity;BMP_temperature;BMP_pressure;BME280_temperature;BME280_humidity;BME280_pressure;Samples;Min_cycle;Max_cycle;Signal;HPM_P1;HPM_P2
2022/06/14 00:02:50;;;;;;;12.68;5.50;;;;;;;;;;5083704;28;20052;-72
2022/06/14 00:05:20;;;;;;;8.80;5.95;;;;;;;;;;5083593;28;20040;-71
2022/06/14 00:07:50;;;;;;;10.73;6.55;;;;;;;;;;5083576;28;20048;-73
2022/06/14 00:10:20;;;;;;;10.30;7.05;;;;;;;;;;5083113;28;20060;-73
2022/06/14 00:12:50;;;;;;;14.07;6.45;;;;;;;;;;5083589;28;20067;-73
2022/06/14 00:15:21;;;;;;;7.03;5.93;;;;;;;;;;5083129;28;20075;-73
2022/06/14 00:17:51;;;;;;;7.15;5.63;;;;;;;;;;5083650;28;20045;-73
2022/06/14 00:20:21;;;;;;;6.80;5.38;;;;;;;;;;5083290;28;20052;-73
2022/06/14 00:22:51;;;;;;;18.00;7.47;;;;;;;;;;5083704;28;20048;-73
2022/06/14 00:25:37;;;;;;;8.00;6.05;;;;;;;;;;5083331;28;20048;-73
2022/06/14 00:28:10;;;;;;;9.82;6.05;;;;;;;;;;5082156;28;20052;-73
2022/06/14 00:30:42;;;;;;;11.65;5.80;;;;;;;;;;5083625;28;20068;-72
2022/06/14 00:33:12;;;;;;;12.50;6.22;;;;;;;;;;5083097;28;20052;-73
2022/06/14 00:35:43;;;;;;;12.13;6.25;;;;;;;;;;5083367;28;20415;-73
2022/06/14 00:38:16;;;;;;;10.23;6.30;;;;;;;;;;5082763;28;20431;-73
2022/06/14 00:40:57;;;;;;;12.57;6.13;;;;;;;;;;5083394;28;20044;-73
2022/06/14 00:43:30;;;;;;;6.80;5.60;;;;;;;;;;5082246;28;20078;-73
2022/06/14 00:46:16;;;;;;;9.45;6.32;;;;;;;;;;5083034;28;20508;-73
2022/06/14 00:48:53;;;;;;;9.32;6.15;;;;;;;;;;5081980;28;20060;-73
2022/06/14 00:51:27;;;;;;;6.50;5.88;;;;;;;;;;5083091;28;20055;-73
2022/06/14 00:54:09;;;;;;;12.18;7.03;;;;;;;;;;5083476;28;20082;-73
2022/06/14 00:56:48;;;;;;;13.35;7.25;;;;;;;;;;5082847;28;20040;-73
2022/06/14 00:59:32;;;;;;;9.32;7.13;;;;;;;;;;5082847;28;20044;-73
2022/06/14 01:02:14;;;;;;;10.35;7.53;;;;;;;;;;5079798;28;20040;-72
2022/06/14 01:04:47;;;;;;;9.77;6.90;;;;;;;;;;5071597;28;20511;-72
2022/06/14 01:07:25;;;;;;;11.07;7.10;;;;;;;;;;5069461;28;20048;-73
2022/06/14 01:10:01;;;;;;;9.57;6.57;;;;;;;;;;5068030;28;20056;-72
2022/06/14 01:12:36;;;;;;;13.45;6.38;;;;;;;;;;5068233;28;20052;-73
2022/06/14 01:15:17;;;;;;;19.70;6.68;;;;;;;;;;5068358;28;20518;-73
2022/06/14 01:17:58;;;;;;;10.15;6.05;;;;;;;;;;5069020;28;20049;-72
2022/06/14 01:20:29;;;;;;;9.93;7.30;;;;;;;;;;5067808;28;20047;-73
2022/06/14 01:23:00;;;;;;;9.43;6.40;;;;;;;;;;5068537;28;20499;-72
2022/06/14 01:25:34;;;;;;;8.25;6.35;;;;;;;;;;5069097;28;20053;-73
2022/06/14 01:28:06;;;;;;;11.45;6.55;;;;;;;;;;5068562;28;20072;-72
2022/06/14 01:30:45;;;;;;;10.50;6.15;;;;;;;;;;5068086;28;20052;-73
2022/06/14 01:33:19;;;;;;;9.52;6.20;;;;;;;;;;5068386;28;20048;-72
2022/06/14 01:35:55;;;;;;;10.45;5.82;;;;;;;;;;5066296;28;20048;-73
2022/06/14 01:38:25;;;;;;;11.18;6.25;;;;;;;;;;5066869;28;20055;-73
2022/06/14 01:41:17;;;;;;;8.38;6.82;;;;;;;;;;5067027;28;20055;-73
2022/06/14 01:44:09;;;;;;;10.48;5.97;;;;;;;;;;5065730;28;20518;-72
2022/06/14 01:46:58;;;;;;;12.85;6.47;;;;;;;;;;5067061;28;20051;-73
2022/06/14 01:52:44;;;;;;;14.95;7.35;;;;;;;;;;5068197;28;20503;-72
2022/06/14 01:55:36;;;;;;;12.60;6.80;;;;;;;;;;5068002;28;20056;-73
2022/06/14 01:58:32;;;;;;;18.45;10.30;;;;;;;;;;5068271;28;20054;-73
2022/06/14 02:01:13;;;;;;;18.23;9.15;;;;;;;;;;5068276;28;20063;-73
2022/06/14 02:07:07;;;;;;;15.77;7.57;;;;;;;;;;5067847;28;20408;-72
2022/06/14 02:09:59;;;;;;;19.75;8.93;;;;;;;;;;5066254;28;20519;-73
2022/06/14 02:12:42;;;;;;;15.38;8.45;;;;;;;;;;5066489;28;20044;-73
2022/06/14 02:15:30;;;;;;;6.07;5.47;;;;;;;;;;5066668;28;20052;-71
2022/06/14 02:18:21;;;;;;;8.48;6.00;;;;;;;;;;5067510;28;20052;-71
2022/06/14 02:21:08;;;;;;;14.30;7.30;;;;;;;;;;5068120;28;20063;-71
2022/06/14 02:23:43;;;;;;;8.20;6.07;;;;;;;;;;5067771;28;20045;-72
2022/06/14 02:26:26;;;;;;;9.77;6.43;;;;;;;;;;5067768;28;20056;-71
2022/06/14 02:29:23;;;;;;;13.32;7.00;;;;;;;;;;5067904;28;20048;-71
2022/06/14 02:31:57;;;;;;;12.10;8.90;;;;;;;;;;5067519;28;20059;-71
2022/06/14 02:35:02;;;;;;;17.95;9.52;;;;;;;;;;5067375;28;20044;-72
2022/06/14 02:37:58;;;;;;;15.85;8.52;;;;;;;;;;5049356;28;20416;-71
2022/06/14 02:40:56;;;;;;;8.90;5.85;;;;;;;;;;5067601;28;20044;-71
2022/06/14 02:43:41;;;;;;;9.98;6.30;;;;;;;;;;5066171;28;20044;-72
2022/06/14 02:46:52;;;;;;;8.63;5.18;;;;;;;;;;5066494;28;20048;-71
2022/06/14 02:49:39;;;;;;;12.85;7.75;;;;;;;;;;5060338;28;20060;-73
2022/06/14 02:52:21;;;;;;;14.07;9.10;;;;;;;;;;5067406;28;20515;-71
2022/06/14 02:55:21;;;;;;;16.58;9.25;;;;;;;;;;5067407;28;20040;-72
2022/06/14 02:57:58;;;;;;;10.13;7.75;;;;;;;;;;5061966;28;20056;-72
2022/06/14 03:00:50;;;;;;;9.88;7.65;;;;;;;;;;5067259;28;20056;-72
2022/06/14 03:03:23;;;;;;;;;;;;;;;;;;5067898;28;20059;-72
2022/06/14 03:06:20;;;;;;;15.80;6.07;;;;;;;;;;5066911;28;19959;-71
2022/06/14 03:09:09;;;;;;;8.18;6.03;;;;;;;;;;5066951;28;20518;-71
2022/06/14 03:11:54;;;;;;;6.53;4.95;;;;;;;;;;5066928;28;20071;-71
2022/06/14 03:14:50;;;;;;;7.55;5.72;;;;;;;;;;5066710;28;20040;-72
2022/06/14 03:17:31;;;;;;;6.85;5.00;;;;;;;;;;5066549;28;20040;-71
2022/06/14 03:20:30;;;;;;;6.45;5.20;;;;;;;;;;5066712;28;20040;-71
2022/06/14 03:23:17;;;;;;;9.60;6.30;;;;;;;;;;5066816;28;20048;-72
2022/06/14 03:25:50;;;;;;;10.25;6.55;;;;;;;;;;5066879;28;20440;-72
2022/06/14 03:28:30;;;;;;;10.80;5.57;;;;;;;;;;5067596;28;20056;-72
2022/06/14 03:31:29;;;;;;;11.30;6.07;;;;;;;;;;5066987;28;20055;-72
2022/06/14 03:34:13;;;;;;;9.10;5.60;;;;;;;;;;5057724;28;21107;-72
2022/06/14 03:36:44;;;;;;;8.25;6.32;;;;;;;;;;5067064;28;20063;-72
2022/06/14 03:39:23;;;;;;;6.03;5.10;;;;;;;;;;5068810;28;20845;-72
2022/06/14 03:41:54;;;;;;;7.90;5.55;;;;;;;;;;5070974;28;20048;-72
2022/06/14 03:44:27;;;;;;;10.57;5.45;;;;;;;;;;5064642;28;20052;-73
2022/06/14 03:47:10;;;;;;;7.82;6.35;;;;;;;;;;5066667;28;20511;-72
2022/06/14 03:49:45;;;;;;;9.82;6.45;;;;;;;;;;5066895;28;20095;-72
2022/06/14 03:52:57;;;;;;;11.65;7.88;;;;;;;;;;5067032;28;20048;-72
2022/06/14 03:56:08;;;;;;;11.48;6.55;;;;;;;;;;5066717;28;20130;-72
2022/06/14 03:59:26;;;;;;;10.07;6.25;;;;;;;;;;5065170;28;20516;-72
2022/06/14 04:02:06;;;;;;;9.02;6.47;;;;;;;;;;5066448;28;20053;-72
2022/06/14 04:05:09;;;;;;;13.93;6.00;;;;;;;;;;5066301;28;20511;-72
2022/06/14 04:07:49;;;;;;;10.00;5.78;;;;;;;;;;5066816;28;20048;-72
2022/06/14 04:10:41;;;;;;;10.40;6.30;;;;;;;;;;5066806;28;20395;-72
2022/06/14 04:13:48;;;;;;;10.75;5.57;;;;;;;;;;5066361;28;20041;-72
2022/06/14 04:16:23;;;;;;;8.60;6.10;;;;;;;;;;5067143;28;21045;-72
2022/06/14 04:19:20;;;;;;;8.80;6.03;;;;;;;;;;5066476;28;20629;-72
2022/06/14 04:22:08;;;;;;;5.45;4.18;;;;;;;;;;5066337;28;20051;-72
2022/06/14 04:24:49;;;;;;;3.15;2.85;;;;;;;;;;5066554;28;20041;-72
2022/06/14 04:27:22;;;;;;;6.13;4.22;;;;;;;;;;5066161;28;20380;-72
2022/06/14 04:30:17;;;;;;;8.13;4.68;;;;;;;;;;5064271;28;20415;-73
2022/06/14 04:33:08;;;;;;;4.22;3.30;;;;;;;;;;5066488;28;20052;-72
2022/06/14 04:35:51;;;;;;;9.73;3.95;;;;;;;;;;5065687;28;20051;-72
2022/06/14 04:38:31;;;;;;;5.90;3.80;;;;;;;;;;5068773;28;20044;-72
2022/06/14 04:41:07;;;;;;;5.43;3.80;;;;;;;;;;5068511;28;20044;-72
2022/06/14 04:43:48;;;;;;;8.05;4.07;;;;;;;;;;5070699;28;20041;-72
2022/06/14 04:46:27;;;;;;;81.03;8.45;;;;;;;;;;5069709;28;20071;-72
2022/06/14 04:49:31;;;;;;;35.97;6.85;;;;;;;;;;5068102;28;20037;-72
2022/06/14 04:52:12;;;;;;;140.63;9.60;;;;;;;;;;5069381;28;20530;-72
2022/06/14 04:55:01;;;;;;;58.25;8.32;;;;;;;;;;5069199;28;20048;-72
2022/06/14 04:57:58;;;;;;;75.03;9.70;;;;;;;;;;5069893;28;20063;-72
2022/06/14 05:00:36;;;;;;;64.15;9.10;;;;;;;;;;5068039;28;20060;-72
2022/06/14 05:03:32;;;;;;;109.30;13.75;;;;;;;;;;5069828;28;20052;-72
2022/06/14 05:06:24;;;;;;;21.60;8.50;;;;;;;;;;5069332;28;20043;-72
2022/06/14 05:08:54;;;;;;;;;;;;;;;;;;5070191;28;20048;-72
2022/06/14 05:11:48;;;;;;;196.15;11.80;;;;;;;;;;5070020;28;19931;-72
2022/06/14 05:14:35;;;;;;;24.25;8.93;;;;;;;;;;5069410;28;20040;-72
2022/06/14 05:17:37;;;;;;;55.42;9.95;;;;;;;;;;5069149;28;20055;-72
2022/06/14 05:20:15;;;;;;;26.48;9.07;;;;;;;;;;5067698;28;20056;-72
2022/06/14 05:23:11;;;;;;;118.18;10.45;;;;;;;;;;5069182;28;20519;-72
2022/06/14 05:26:10;;;;;;;261.77;14.48;;;;;;;;;;5061929;28;20056;-72
2022/06/14 05:29:09;;;;;;;175.77;12.10;;;;;;;;;;5068882;28;20050;-72
2022/06/14 05:31:55;;;;;;;430.48;17.58;;;;;;;;;;5069180;28;20056;-72
2022/06/14 05:34:31;;;;;;;377.95;13.75;;;;;;;;;;5068721;28;20496;-72
2022/06/14 05:37:33;;;;;;;190.25;9.52;;;;;;;;;;5069408;28;20060;-73
2022/06/14 05:40:15;;;;;;;59.58;6.85;;;;;;;;;;5068450;28;20959;-72
2022/06/14 05:43:08;;;;;;;106.95;8.48;;;;;;;;;;5068611;28;20052;-72
2022/06/14 05:45:43;;;;;;;44.00;6.47;;;;;;;;;;5068722;28;20044;-72
2022/06/14 05:48:28;;;;;;;204.77;11.27;;;;;;;;;;5068814;28;20045;-72
2022/06/14 05:51:01;;;;;;;108.72;8.85;;;;;;;;;;5068141;28;20079;-72
2022/06/14 05:53:34;;;;;;;109.05;8.02;;;;;;;;;;5068605;28;20068;-72
2022/06/14 05:56:17;;;;;;;108.53;7.63;;;;;;;;;;5068680;28;20048;-72
2022/06/14 05:59:03;;;;;;;55.55;7.65;;;;;;;;;;5068302;28;20048;-72
2022/06/14 06:01:57;;;;;;;108.43;7.78;;;;;;;;;;5068791;28;20041;-72
2022/06/14 06:04:46;;;;;;;89.70;7.57;;;;;;;;;;5068386;28;20040;-72
2022/06/14 06:07:31;;;;;;;87.95;7.45;;;;;;;;;;5068172;28;20403;-72
2022/06/14 06:10:06;;;;;;;82.80;7.35;;;;;;;;;;5067539;28;20064;-72
2022/06/14 06:12:55;;;;;;;45.97;7.63;;;;;;;;;;5068502;28;20057;-72
2022/06/14 06:15:36;;;;;;;113.85;8.60;;;;;;;;;;5075534;28;20029;-72
2022/06/14 06:18:16;;;;;;;303.83;11.48;;;;;;;;;;5087346;28;20060;-72
2022/06/14 06:21:18;;;;;;;273.45;11.45;;;;;;;;;;5068117;28;20048;-72
2022/06/14 06:24:03;;;;;;;77.32;7.30;;;;;;;;;;5058381;28;20056;-72
2022/06/14 06:26:38;;;;;;;107.90;7.43;;;;;;;;;;5068142;28;20506;-73
2022/06/14 06:29:37;;;;;;;170.90;8.93;;;;;;;;;;5067989;28;20622;-72
2022/06/14 06:32:08;;;;;;;221.13;9.52;;;;;;;;;;5038091;28;20404;-72
2022/06/14 06:34:40;;;;;;;269.42;10.82;;;;;;;;;;5067555;28;20048;-72
2022/06/14 06:37:16;;;;;;;92.53;7.55;;;;;;;;;;5068272;28;20036;-73
2022/06/14 06:39:52;;;;;;;26.60;5.90;;;;;;;;;;5067693;28;20052;-72
2022/06/14 06:43:00;;;;;;;151.30;8.82;;;;;;;;;;5067620;28;20503;-72
2022/06/14 06:45:33;;;;;;;69.18;7.25;;;;;;;;;;5005573;28;20537;-72
2022/06/14 06:48:06;;;;;;;47.25;6.40;;;;;;;;;;5060099;28;20430;-72
2022/06/14 06:50:47;;;;;;;99.93;7.50;;;;;;;;;;5067098;28;20057;-77
2022/06/14 06:53:19;;;;;;;86.88;8.07;;;;;;;;;;5066360;28;20079;-73
2022/06/14 06:55:59;;;;;;;132.18;7.65;;;;;;;;;;5067429;28;20403;-72
2022/06/14 06:58:35;;;;;;;90.25;7.90;;;;;;;;;;5067873;28;20075;-72
2022/06/14 07:01:27;;;;;;;71.30;6.88;;;;;;;;;;5066802;28;20048;-73
2022/06/14 07:04:15;;;;;;;144.90;7.93;;;;;;;;;;5067590;28;20044;-72
2022/06/14 07:06:45;;;;;;;82.30;7.30;;;;;;;;;;5066879;28;20379;-73
2022/06/14 07:09:19;;;;;;;78.95;6.75;;;;;;;;;;5067163;28;20488;-73
2022/06/14 07:11:56;;;;;;;72.85;6.80;;;;;;;;;;5049260;28;20048;-72
2022/06/14 07:15:00;;;;;;;34.15;6.55;;;;;;;;;;5066895;28;20055;-73
2022/06/14 07:18:09;;;;;;;61.60;7.15;;;;;;;;;;5066559;28;20052;-72
2022/06/14 07:21:09;;;;;;;95.45;7.10;;;;;;;;;;5055294;28;20060;-72
2022/06/14 07:24:00;;;;;;;143.77;8.27;;;;;;;;;;5066640;28;20052;-72
2022/06/14 07:26:52;;;;;;;99.00;7.75;;;;;;;;;;5066847;28;20052;-73
2022/06/14 07:29:25;;;;;;;;;;;;;;;;;;5067299;28;20052;-72
2022/06/14 07:32:18;;;;;;;152.50;8.25;;;;;;;;;;5067057;28;19928;-73
2022/06/14 07:34:57;;;;;;;114.33;8.17;;;;;;;;;;5066495;28;20044;-72
2022/06/14 07:37:55;;;;;;;112.03;6.13;;;;;;;;;;5066911;28;20812;-72
2022/06/14 07:41:05;;;;;;;110.10;7.20;;;;;;;;;;5047535;28;20063;-72
2022/06/14 07:43:45;;;;;;;102.97;5.95;;;;;;;;;;5066209;28;20044;-73
2022/06/14 07:46:22;;;;;;;124.03;6.43;;;;;;;;;;5066758;28;20519;-73
2022/06/14 07:49:04;;;;;;;119.35;6.75;;;;;;;;;;5066651;28;20058;-72
2022/06/14 07:51:47;;;;;;;119.53;8.15;;;;;;;;;;5066029;28;20095;-72
2022/06/14 07:54:37;;;;;;;149.93;6.50;;;;;;;;;;5066620;28;20511;-72
2022/06/14 07:57:10;;;;;;;92.20;4.90;;;;;;;;;;5066485;28;20045;-73
2022/06/14 08:03:33;;;;;;;173.20;12.82;;;;;;;;;;5066611;28;20044;-72
2022/06/14 08:06:21;;;;;;;154.88;6.45;;;;;;;;;;5064860;28;20067;-72
2022/06/14 08:09:01;;;;;;;161.40;6.35;;;;;;;;;;5065662;28;20057;-73
2022/06/14 08:11:44;;;;;;;155.02;7.72;;;;;;;;;;5065435;28;20515;-72
2022/06/14 08:14:21;;;;;;;234.95;7.25;;;;;;;;;;5070619;28;20059;-73
2022/06/14 08:16:54;;;;;;;159.80;7.55;;;;;;;;;;5070527;28;20037;-72
2022/06/14 08:20:08;;;;;;;224.23;7.75;;;;;;;;;;5070369;28;20044;-72
2022/06/14 08:22:46;;;;;;;136.27;7.10;;;;;;;;;;5070132;28;20049;-72
2022/06/14 08:25:20;;;;;;;191.98;6.30;;;;;;;;;;5070419;28;20040;-73
2022/06/14 08:28:15;;;;;;;139.63;5.05;;;;;;;;;;5070476;28;20051;-73
2022/06/14 08:31:18;;;;;;;192.70;7.43;;;;;;;;;;5070354;28;20048;-72
2022/06/14 08:34:04;;;;;;;166.15;5.97;;;;;;;;;;5070463;28;20404;-72
2022/06/14 08:36:52;;;;;;;121.03;4.80;;;;;;;;;;5070625;28;20048;-73
2022/06/14 08:39:31;;;;;;;163.73;6.85;;;;;;;;;;5069846;28;20048;-73
2022/06/14 08:42:15;;;;;;;321.85;8.20;;;;;;;;;;5070221;28;20612;-73
2022/06/14 08:45:21;;;;;;;251.43;6.53;;;;;;;;;;5070112;28;20063;-72
2022/06/14 08:48:20;;;;;;;212.27;9.25;;;;;;;;;;5069742;28;20056;-72
2022/06/14 08:50:52;;;;;;;208.23;6.20;;;;;;;;;;5074273;28;20053;-72
2022/06/14 08:53:50;;;;;;;153.02;5.40;;;;;;;;;;5074690;28;20049;-72
2022/06/14 08:56:36;;;;;;;99.80;4.38;;;;;;;;;;5069614;28;20032;-72
2022/06/14 08:59:36;;;;;;;196.77;6.38;;;;;;;;;;5068208;28;20056;-72
2022/06/14 09:02:29;;;;;;;217.73;6.65;;;;;;;;;;5069605;28;20385;-72
2022/06/14 09:05:14;;;;;;;176.02;6.18;;;;;;;;;;5069762;28;20055;-73
2022/06/14 09:07:58;;;;;;;133.55;4.75;;;;;;;;;;5069091;28;20602;-72
2022/06/14 09:11:00;;;;;;;88.10;4.43;;;;;;;;;;5069737;28;20045;-73
2022/06/14 09:13:33;;;;;;;127.32;5.55;;;;;;;;;;5069334;28;20060;-73
2022/06/14 09:16:15;;;;;;;275.98;10.13;;;;;;;;;;5069439;28;20060;-72
2022/06/14 09:19:00;;;;;;;141.93;4.90;;;;;;;;;;5069045;28;20051;-72
2022/06/14 09:21:31;;;;;;;176.48;5.63;;;;;;;;;;5069314;28;20140;-73
2022/06/14 09:24:42;;;;;;;264.23;9.38;;;;;;;;;;5069001;28;20048;-72
2022/06/14 09:27:36;;;;;;;172.13;7.43;;;;;;;;;;5068174;28;20504;-72
2022/06/14 09:30:34;;;;;;;134.10;5.65;;;;;;;;;;5069419;28;20055;-72
2022/06/14 09:33:26;;;;;;;123.18;5.22;;;;;;;;;;5069428;28;20052;-72
2022/06/14 09:36:23;;;;;;;279.57;6.90;;;;;;;;;;5067965;28;20040;-72
2022/06/14 09:39:23;;;;;;;240.80;7.25;;;;;;;;;;5068757;28;20052;-77
2022/06/14 09:42:21;;;;;;;214.20;7.68;;;;;;;;;;5068793;28;20045;-73
2022/06/14 09:45:14;;;;;;;123.20;5.43;;;;;;;;;;5069206;28;20056;-72
2022/06/14 09:48:06;;;;;;;90.55;5.60;;;;;;;;;;5068428;28;20047;-72
2022/06/14 09:50:49;;;;;;;316.17;8.70;;;;;;;;;;5068927;28;20068;-72
2022/06/14 09:53:53;;;;;;;449.05;12.05;;;;;;;;;;5068496;28;20036;-72
2022/06/14 09:56:53;;;;;;;219.55;6.90;;;;;;;;;;5036639;28;20067;-72
2022/06/14 09:59:39;;;;;;;314.10;8.30;;;;;;;;;;5068436;28;20036;-72
2022/06/14 10:02:36;;;;;;;288.58;9.32;;;;;;;;;;5068719;28;20048;-73
2022/06/14 10:05:23;;;;;;;325.23;8.27;;;;;;;;;;5068053;28;20040;-73
2022/06/14 10:08:19;;;;;;;226.13;7.78;;;;;;;;;;5068161;28;20052;-72
2022/06/14 10:10:58;;;;;;;150.60;4.60;;;;;;;;;;5068120;28;20411;-72
2022/06/14 10:13:31;;;;;;;134.60;9.10;;;;;;;;;;5066223;28;20049;-72
2022/06/14 10:16:13;;;;;;;200.30;6.15;;;;;;;;;;5068467;28;20541;-75
2022/06/14 10:19:07;;;;;;;177.85;4.78;;;;;;;;;;5068519;28;20085;-73
2022/06/14 10:21:47;;;;;;;131.25;7.38;;;;;;;;;;5068036;28;20115;-73
2022/06/14 10:24:40;;;;;;;75.78;3.38;;;;;;;;;;5068192;28;20593;-72
2022/06/14 10:30:12;;;;;;;27.52;3.20;;;;;;;;;;5067803;28;20068;-73
2022/06/14 10:33:00;;;;;;;81.35;3.90;;;;;;;;;;5068204;28;20075;-76
2022/06/14 10:36:15;;;;;;;246.35;7.10;;;;;;;;;;5066665;28;20052;-73
2022/06/14 10:39:13;;;;;;;217.18;6.55;;;;;;;;;;5048779;28;20060;-73
2022/06/14 10:42:21;;;;;;;194.05;5.97;;;;;;;;;;5064637;28;20045;-72
2022/06/14 10:45:04;;;;;;;93.72;3.92;;;;;;;;;;5005728;28;20054;-72
2022/06/14 10:48:09;;;;;;;132.63;3.85;;;;;;;;;;5062874;28;20522;-75
2022/06/14 10:50:57;;;;;;;73.75;4.63;;;;;;;;;;5065757;28;20059;-73
2022/06/14 10:53:55;;;;;;;287.67;9.50;;;;;;;;;;5065797;28;20060;-73
2022/06/14 10:56:37;;;;;;;177.02;4.88;;;;;;;;;;5067468;28;20036;-73
2022/06/14 10:59:25;;;;;;;185.13;7.75;;;;;;;;;;5067087;28;20415;-73
2022/06/14 11:02:05;;;;;;;148.15;4.60;;;;;;;;;;5067139;28;20071;-74
2022/06/14 11:04:41;;;;;;;128.77;3.67;;;;;;;;;;5066987;28;20531;-75
2022/06/14 11:07:25;;;;;;;187.43;5.85;;;;;;;;;;5067361;28;20526;-73
2022/06/14 11:10:32;;;;;;;140.10;6.45;;;;;;;;;;5067874;28;20047;-72
2022/06/14 11:13:20;;;;;;;143.45;5.28;;;;;;;;;;5066955;28;20045;-71
2022/06/14 11:15:53;;;;;;;44.78;3.00;;;;;;;;;;5066564;28;20063;-71
2022/06/14 11:18:39;;;;;;;61.78;2.97;;;;;;;;;;5065337;28;20049;-72
2022/06/14 11:21:27;;;;;;;112.05;4.18;;;;;;;;;;5080585;28;20028;-75
2022/06/14 11:24:18;;;;;;;271.13;7.05;;;;;;;;;;5085155;28;20042;-75
2022/06/14 11:27:30;;;;;;;143.00;4.63;;;;;;;;;;5067756;28;20511;-74
2022/06/14 11:30:30;;;;;;;52.30;3.03;;;;;;;;;;5004271;28;20053;-72
2022/06/14 11:33:29;;;;;;;122.88;5.13;;;;;;;;;;5067116;28;20048;-74
2022/06/14 11:36:20;;;;;;;100.60;3.50;;;;;;;;;;5067871;28;20092;-71
2022/06/14 11:39:20;;;;;;;39.33;3.22;;;;;;;;;;5064875;28;20052;-71
2022/06/14 11:41:51;;;;;;;48.40;7.43;;;;;;;;;;5066814;28;20052;-72
2022/06/14 11:44:23;;;;;;;70.43;3.60;;;;;;;;;;5066804;28;20040;-72
2022/06/14 11:47:16;;;;;;;56.88;7.95;;;;;;;;;;5066386;28;20068;-72
2022/06/14 11:50:14;;;;;;;69.75;3.60;;;;;;;;;;5066766;28;20055;-73
2022/06/14 11:53:02;;;;;;;194.15;5.70;;;;;;;;;;5066674;28;20052;-72
2022/06/14 11:55:37;;;;;;;47.88;2.88;;;;;;;;;;5066061;28;20052;-72
2022/06/14 11:58:09;;;;;;;235.57;7.55;;;;;;;;;;5066591;28;20404;-74
2022/06/14 12:00:51;;;;;;;121.80;4.82;;;;;;;;;;5064698;28;20063;-74
2022/06/14 12:03:48;;;;;;;126.75;4.13;;;;;;;;;;5066953;28;20048;-72
2022/06/14 12:06:31;;;;;;;47.95;2.90;;;;;;;;;;5066652;28;20040;-73
2022/06/14 12:09:34;;;;;;;71.00;4.53;;;;;;;;;;5066554;28;20037;-72
2022/06/14 12:12:30;;;;;;;58.30;3.78;;;;;;;;;;5066365;28;20048;-72
2022/06/14 12:15:07;;;;;;;20.77;4.43;;;;;;;;;;5066364;28;20045;-75
2022/06/14 12:17:45;;;;;;;14.65;4.30;;;;;;;;;;5066280;28;20044;-72
2022/06/14 12:20:18;;;;;;;18.08;7.63;;;;;;;;;;5066414;28;20060;-72
2022/06/14 12:23:16;;;;;;;14.10;4.70;;;;;;;;;;5064778;28;20071;-72
2022/06/14 12:26:39;;;;;;;11.95;8.90;;;;;;;;;;5064107;28;20051;-73
2022/06/14 12:29:18;;;;;;;4.90;3.45;;;;;;;;;;5067498;28;20403;-72
2022/06/14 12:31:51;;;;;;;6.38;4.47;;;;;;;;;;5066139;28;20059;-72
2022/06/14 12:34:28;;;;;;;21.45;7.82;;;;;;;;;;5066160;28;20059;-73
2022/06/14 12:37:34;;;;;;;4.68;2.78;;;;;;;;;;5066302;28;20056;-76
2022/06/14 12:40:04;;;;;;;10.48;3.08;;;;;;;;;;5065886;28;20071;-74
2022/06/14 12:42:52;;;;;;;5.15;3.17;;;;;;;;;;5065538;28;20040;-76
2022/06/14 12:45:44;;;;;;;17.63;5.18;;;;;;;;;;5064419;28;20062;-73
2022/06/14 12:48:42;;;;;;;13.10;8.77;;;;;;;;;;5066085;28;20059;-73
2022/06/14 12:51:30;;;;;;;11.00;6.55;;;;;;;;;;5064008;28;20052;-73
2022/06/14 12:54:18;;;;;;;18.77;8.98;;;;;;;;;;5066213;28;20517;-73
2022/06/14 12:57:05;;;;;;;8.40;5.60;;;;;;;;;;5065731;28;20527;-73
2022/06/14 12:59:56;;;;;;;2.88;2.60;;;;;;;;;;5068774;28;20047;-73
2022/06/14 13:02:59;;;;;;;7.03;3.25;;;;;;;;;;5069941;28;20048;-73
2022/06/14 13:05:37;;;;;;;10.10;3.20;;;;;;;;;;5069537;28;20059;-73
2022/06/14 13:08:28;;;;;;;8.40;4.70;;;;;;;;;;5067821;28;20057;-73
2022/06/14 13:11:15;;;;;;;8.57;4.80;;;;;;;;;;5069423;28;20052;-74
2022/06/14 13:13:53;;;;;;;4.85;4.05;;;;;;;;;;5069532;28;20059;-73
2022/06/14 13:16:35;;;;;;;4.60;2.85;;;;;;;;;;5068838;28;20048;-73
2022/06/14 13:19:17;;;;;;;4.50;2.55;;;;;;;;;;5069319;28;20045;-73
2022/06/14 13:21:50;;;;;;;4.38;2.42;;;;;;;;;;5068175;28;20045;-75
2022/06/14 13:24:31;;;;;;;3.83;1.73;;;;;;;;;;5067725;28;20051;-74
2022/06/14 13:27:36;;;;;;;2.45;2.05;;;;;;;;;;5068725;28;20048;-74
2022/06/14 13:30:45;;;;;;;6.20;2.55;;;;;;;;;;5069089;28;20048;-74
2022/06/14 13:33:30;;;;;;;5.03;2.00;;;;;;;;;;5068744;28;20048;-73
2022/06/14 13:36:05;;;;;;;5.00;2.28;;;;;;;;;;5069022;28;20051;-73
2022/06/14 13:38:48;;;;;;;6.55;2.47;;;;;;;;;;5068668;28;20044;-73
2022/06/14 13:41:32;;;;;;;9.60;2.40;;;;;;;;;;5068847;28;20049;-74
2022/06/14 13:44:23;;;;;;;3.45;2.15;;;;;;;;;;5068878;28;20041;-74
2022/06/14 13:47:01;;;;;;;8.50;2.65;;;;;;;;;;5067917;28;20504;-73
2022/06/14 13:49:59;;;;;;;7.97;3.10;;;;;;;;;;5068378;28;20572;-74
2022/06/14 13:53:21;;;;;;;2.75;2.40;;;;;;;;;;5068827;28;20045;-74
2022/06/14 13:56:12;;;;;;;11.30;5.75;;;;;;;;;;5058571;28;20071;-74
2022/06/14 13:58:53;;;;;;;3.67;2.10;;;;;;;;;;5069473;28;20055;-74
2022/06/14 14:01:42;;;;;;;6.93;2.72;;;;;;;;;;5068633;28;20048;-74
2022/06/14 14:04:44;;;;;;;6.60;2.30;;;;;;;;;;5067227;28;20511;-73
2022/06/14 14:07:41;;;;;;;4.55;2.63;;;;;;;;;;5068472;28;20048;-73
2022/06/14 14:10:11;;;;;;;4.35;2.67;;;;;;;;;;5066848;28;20055;-74
2022/06/14 14:13:09;;;;;;;3.95;2.78;;;;;;;;;;5068829;28;20044;-74
2022/06/14 14:15:56;;;;;;;15.55;3.30;;;;;;;;;;5045677;28;20068;-75
2022/06/14 14:18:56;;;;;;;3.25;2.90;;;;;;;;;;5068162;28;20051;-74
2022/06/14 14:21:35;;;;;;;4.20;2.90;;;;;;;;;;5067403;28;20044;-75
2022/06/14 14:24:28;;;;;;;7.82;2.75;;;;;;;;;;5068023;28;20041;-73
2022/06/14 14:27:32;;;;;;;8.93;3.10;;;;;;;;;;5067894;28;20052;-73
2022/06/14 14:30:44;;;;;;;2.88;2.58;;;;;;;;;;5067821;28;20491;-74
2022/06/14 14:33:18;;;;;;;;;;;;;;;;;;5068940;28;20040;-75
2022/06/14 14:35:56;;;;;;;3.03;2.70;;;;;;;;;;5068106;28;20489;-75
2022/06/14 14:38:49;;;;;;;13.43;4.25;;;;;;;;;;5068643;28;20048;-73
2022/06/14 14:41:41;;;;;;;12.70;3.40;;;;;;;;;;5067496;28;20051;-74
2022/06/14 14:44:20;;;;;;;5.13;3.08;;;;;;;;;;5067724;28;20430;-72
2022/06/14 14:47:04;;;;;;;4.60;2.53;;;;;;;;;;5067598;28;20427;-74
2022/06/14 14:50:15;;;;;;;6.43;2.38;;;;;;;;;;5067482;28;20056;-75
2022/06/14 14:53:10;;;;;;;5.78;2.50;;;;;;;;;;5013974;28;20057;-73
2022/06/14 14:55:52;;;;;;;7.50;2.63;;;;;;;;;;5039410;28;20404;-74
2022/06/14 14:58:34;;;;;;;8.73;2.90;;;;;;;;;;5067553;28;20048;-73
2022/06/14 15:08:12;;;;;;;6.55;2.67;;;;;;;;;;5067012;28;20507;-74
2022/06/14 15:11:00;;;;;;;5.35;2.55;;;;;;;;;;5059903;28;20534;-75
2022/06/14 15:13:35;;;;;;;2.65;2.40;;;;;;;;;;5066623;28;20507;-74
2022/06/14 15:16:22;;;;;;;4.50;2.60;;;;;;;;;;5067027;28;20040;-75
2022/06/14 15:21:55;;;;;;;2.92;2.20;;;;;;;;;;5066622;28;20048;-73
2022/06/14 15:24:36;;;;;;;4.28;2.30;;;;;;;;;;5067209;28;20055;-73
2022/06/14 15:27:07;;;;;;;;;;;;;;;;;;5067573;28;20059;-73
2022/06/14 15:29:41;;;;;;;4.22;2.40;;;;;;;;;;5067594;28;20391;-74
2022/06/14 15:32:27;;;;;;;5.03;2.72;;;;;;;;;;5067349;28;20495;-72
2022/06/14 15:35:18;;;;;;;3.53;2.55;;;;;;;;;;5065981;28;20067;-73
2022/06/14 15:38:15;;;;;;;5.80;2.80;;;;;;;;;;5066854;28;20395;-74
2022/06/14 15:40:46;;;;;;;5.47;3.72;;;;;;;;;;5066682;28;20531;-73
2022/06/14 15:43:29;;;;;;;6.85;2.80;;;;;;;;;;5065573;28;20056;-74
2022/06/14 15:45:59;;;;;;;11.43;3.53;;;;;;;;;;5066890;28;20044;-73
2022/06/14 15:48:38;;;;;;;4.75;3.55;;;;;;;;;;5066859;28;20052;-74
2022/06/14 15:51:12;;;;;;;8.88;3.67;;;;;;;;;;5066370;28;20048;-73
2022/06/14 15:53:42;;;;;;;7.88;3.30;;;;;;;;;;5066382;28;20044;-74
2022/06/14 15:56:35;;;;;;;5.65;3.35;;;;;;;;;;5066874;28;20037;-73
2022/06/14 15:59:17;;;;;;;5.15;3.08;;;;;;;;;;5066487;28;20052;-73
2022/06/14 16:01:56;;;;;;;10.40;3.45;;;;;;;;;;5066398;28;20052;-74
2022/06/14 16:04:37;;;;;;;10.93;4.15;;;;;;;;;;5066482;28;20040;-73
2022/06/14 16:07:14;;;;;;;3.67;2.78;;;;;;;;;;5066242;28;20044;-73
2022/06/14 16:09:56;;;;;;;6.07;3.20;;;;;;;;;;5066619;28;20044;-73
2022/06/14 16:12:55;;;;;;;5.45;2.83;;;;;;;;;;5066563;28;21168;-73
2022/06/14 16:15:44;;;;;;;46.55;6.78;;;;;;;;;;5064664;28;20052;-76
2022/06/14 16:18:40;;;;;;;13.82;3.08;;;;;;;;;;5066703;28;20539;-74
2022/06/14 16:21:15;;;;;;;7.85;2.65;;;;;;;;;;5066905;28;20048;-74
2022/06/14 16:23:47;;;;;;;14.95;3.50;;;;;;;;;;5067194;28;20049;-73
2022/06/14 16:26:50;;;;;;;2.72;1.90;;;;;;;;;;5066134;28;20040;-73
2022/06/14 16:29:46;;;;;;;3.15;1.70;;;;;;;;;;5066528;28;20045;-73
2022/06/14 16:32:19;;;;;;;6.43;2.30;;;;;;;;;;5056084;28;20063;-73
2022/06/14 16:35:02;;;;;;;4.90;1.58;;;;;;;;;;5051666;28;20052;-73
2022/06/14 16:37:50;;;;;;;6.03;1.75;;;;;;;;;;5069812;28;20044;-74
2022/06/14 16:40:32;;;;;;;2.38;1.40;;;;;;;;;;5069771;28;20045;-73
2022/06/14 16:43:04;;;;;;;1.63;1.23;;;;;;;;;;5069801;28;20051;-73
2022/06/14 16:45:50;;;;;;;3.40;1.45;;;;;;;;;;5070016;28;20047;-73